createdAt,value
2022-09-23T00:01:58.511Z,6.80
2022-09-23T00:04:46.770Z,6.80
2022-09-23T00:07:34.866Z,6.70
2022-09-23T00:10:23.479Z,6.70
2022-09-23T00:13:11.851Z,6.70
2022-09-23T00:16:03.849Z,6.60
2022-09-23T00:18:53.418Z,6.60
2022-09-23T00:21:42.607Z,6.60
2022-09-23T00:24:32.402Z,6.60
2022-09-23T00:27:24.737Z,6.60
2022-09-23T00:30:13.208Z,6.60
2022-09-23T00:33:01.282Z,6.60
2022-09-23T00:35:50.752Z,6.60
2022-09-23T00:38:39.048Z,6.60
2022-09-23T00:41:27.661Z,6.50
2022-09-23T00:44:45.025Z,6.50
2022-09-23T00:47:36.142Z,6.40
2022-09-23T00:50:30.107Z,6.40
2022-09-23T00:53:23.231Z,6.50
2022-09-23T00:56:12.857Z,6.40
2022-09-23T00:59:02.021Z,6.40
2022-09-23T01:01:50.885Z,6.40
2022-09-23T01:04:39.187Z,6.40
2022-09-23T01:07:27.228Z,6.30
2022-09-23T01:10:18.906Z,6.30
2022-09-23T01:13:18.272Z,6.30
2022-09-23T01:16:11.295Z,6.30
2022-09-23T01:19:10.227Z,6.30
2022-09-23T01:22:05.772Z,6.30
2022-09-23T01:25:10.920Z,6.30
2022-09-23T01:28:19.354Z,6.20
2022-09-23T01:31:16.157Z,6.20
2022-09-23T01:34:11.532Z,6.30
2022-09-23T01:37:08.886Z,6.30
2022-09-23T01:40:04.366Z,6.20
2022-09-23T01:42:57.927Z,6.20
2022-09-23T01:45:48.391Z,6.20
2022-09-23T01:48:45.798Z,6.10
2022-09-23T01:51:38.503Z,6.10
2022-09-23T01:54:31.456Z,6.10
2022-09-23T01:57:26.553Z,6.10
2022-09-23T02:00:17.274Z,6.10
2022-09-23T02:03:10.270Z,6.10
2022-09-23T02:06:03.549Z,6.10
2022-09-23T02:08:56.514Z,6.10
2022-09-23T02:11:48.118Z,6.10
2022-09-23T02:14:43.145Z,6.10
2022-09-23T02:17:39.658Z,6.10
2022-09-23T02:20:31.322Z,6.00
2022-09-23T02:23:26.073Z,6.00
2022-09-23T02:26:20.339Z,6.00
2022-09-23T02:29:19.365Z,5.90
2022-09-23T02:32:16.239Z,5.80
2022-09-23T02:35:14.712Z,5.70
2022-09-23T02:38:12.295Z,5.60
2022-09-23T02:41:11.332Z,5.70
2022-09-23T02:44:04.280Z,5.60
2022-09-23T02:46:53.258Z,5.60
2022-09-23T02:49:42.145Z,5.70
2022-09-23T02:52:30.285Z,5.70
2022-09-23T02:55:23.410Z,5.70
2022-09-23T02:58:14.352Z,5.70
2022-09-23T03:01:11.088Z,5.60
2022-09-23T03:04:09.358Z,5.70
2022-09-23T03:07:02.800Z,5.70
2022-09-23T03:09:57.344Z,5.60
2022-09-23T03:12:53.672Z,5.70
2022-09-23T03:15:52.360Z,5.70
2022-09-23T03:18:43.783Z,5.60
2022-09-23T03:21:38.643Z,5.60
2022-09-23T03:24:27.235Z,5.60
2022-09-23T03:27:19.438Z,5.60
2022-09-23T03:30:09.299Z,5.60
2022-09-23T03:33:01.073Z,5.60
2022-09-23T03:36:11.166Z,5.50
2022-09-23T03:39:06.428Z,5.50
2022-09-23T03:41:57.937Z,5.50
2022-09-23T03:44:47.580Z,5.50
2022-09-23T03:47:36.210Z,5.40
2022-09-23T03:50:25.762Z,5.40
2022-09-23T03:53:14.214Z,5.50
2022-09-23T03:56:02.731Z,5.40
2022-09-23T03:58:51.053Z,5.40
2022-09-23T04:01:39.148Z,5.40
2022-09-23T04:04:27.885Z,5.50
2022-09-23T04:07:17.926Z,5.40
2022-09-23T04:10:07.208Z,5.40
2022-09-23T04:12:55.239Z,5.40
2022-09-23T04:15:43.317Z,5.40
2022-09-23T04:18:31.914Z,5.40
2022-09-23T04:21:20.073Z,5.50
2022-09-23T04:24:10.030Z,5.40
2022-09-23T04:26:58.520Z,5.40
2022-09-23T04:29:46.570Z,5.40
2022-09-23T04:32:34.609Z,5.40
2022-09-23T04:35:22.683Z,5.40
2022-09-23T04:38:12.135Z,5.40
2022-09-23T04:41:01.536Z,5.40
2022-09-23T04:43:49.591Z,5.40
2022-09-23T04:46:39.173Z,5.40
2022-09-23T04:49:27.337Z,5.40
2022-09-23T04:52:15.368Z,5.20
2022-09-23T04:55:03.807Z,5.20
2022-09-23T04:57:54.738Z,5.30
2022-09-23T05:00:42.799Z,5.20
2022-09-23T05:03:34.266Z,5.20
2022-09-23T05:06:23.374Z,5.20
2022-09-23T05:09:15.430Z,5.30
2022-09-23T05:12:03.748Z,5.40
2022-09-23T05:14:53.101Z,5.40
2022-09-23T05:17:42.810Z,5.40
2022-09-23T05:20:30.956Z,5.50
2022-09-23T05:23:19.003Z,5.50
2022-09-23T05:26:09.240Z,5.50
2022-09-23T05:28:58.416Z,5.60
2022-09-23T05:31:47.849Z,5.70
2022-09-23T05:34:35.955Z,5.90
2022-09-23T05:40:13.426Z,5.80
2022-09-23T05:43:01.561Z,6.00
2022-09-23T05:45:49.630Z,6.00
2022-09-23T05:48:40.210Z,6.00
2022-09-23T05:51:31.169Z,6.00
2022-09-23T05:54:19.626Z,6.10
2022-09-23T05:57:07.823Z,6.20
2022-09-23T05:59:56.321Z,6.20
2022-09-23T06:02:44.419Z,6.30
2022-09-23T06:05:33.943Z,6.30
2022-09-23T06:08:22.481Z,6.40
2022-09-23T06:11:12.340Z,6.50
2022-09-23T06:14:02.030Z,6.50
2022-09-23T06:16:50.146Z,6.60
2022-09-23T06:19:38.203Z,6.70
2022-09-23T06:22:27.683Z,6.70
2022-09-23T06:25:16.452Z,6.80
2022-09-23T06:28:04.717Z,6.80
2022-09-23T06:30:58.364Z,6.90
2022-09-23T06:33:47.181Z,7.00
2022-09-23T06:36:43.478Z,7.10
2022-09-23T06:39:33.640Z,7.20
2022-09-23T06:42:21.687Z,7.30
2022-09-23T06:45:14.897Z,7.50
2022-09-23T06:48:08.316Z,7.60
2022-09-23T06:51:02.455Z,7.70
2022-09-23T06:53:50.900Z,7.80
2022-09-23T06:56:40.439Z,7.90
2022-09-23T06:59:28.465Z,8.00
2022-09-23T07:02:17.013Z,8.20
2022-09-23T07:05:05.720Z,8.20
2022-09-23T07:07:54.626Z,8.40
2022-09-23T07:10:42.681Z,8.40
2022-09-23T07:13:33.415Z,8.50
2022-09-23T07:16:21.655Z,8.70
2022-09-23T07:19:10.330Z,8.80
2022-09-23T07:21:58.403Z,8.80
2022-09-23T07:24:47.270Z,8.90
2022-09-23T07:27:35.311Z,9.10
2022-09-23T07:30:25.635Z,9.00
2022-09-23T07:33:29.832Z,9.30
2022-09-23T07:36:20.582Z,9.40
2022-09-23T07:39:09.740Z,9.50
2022-09-23T07:41:57.931Z,9.60
2022-09-23T07:44:46.810Z,9.70
2022-09-23T07:47:36.427Z,9.80
2022-09-23T07:50:24.706Z,9.90
2022-09-23T07:53:13.586Z,10.00
2022-09-23T07:56:01.837Z,10.20
2022-09-23T07:59:00.166Z,10.30
2022-09-23T08:01:53.442Z,10.40
2022-09-23T08:04:43.812Z,10.50
2022-09-23T08:07:34.408Z,10.70
2022-09-23T08:10:23.034Z,10.80
2022-09-23T08:13:11.453Z,10.90
2022-09-23T08:15:59.716Z,11.00
2022-09-23T08:18:47.847Z,11.10
2022-09-23T08:21:39.341Z,11.20
2022-09-23T08:24:27.903Z,11.30
2022-09-23T08:27:16.170Z,11.40
2022-09-23T08:30:04.594Z,11.50
2022-09-23T08:32:52.932Z,11.60
2022-09-23T08:35:41.358Z,11.60
2022-09-23T08:38:31.012Z,11.80
2022-09-23T08:41:26.961Z,11.90
2022-09-23T08:44:19.407Z,12.00
2022-09-23T08:47:17.028Z,12.10
2022-09-23T08:50:09.150Z,12.20
2022-09-23T08:53:00.636Z,12.40
2022-09-23T08:55:53.542Z,12.50
2022-09-23T08:58:54.535Z,12.60
2022-09-23T09:01:45.392Z,12.70
2022-09-23T09:04:42.925Z,12.80
2022-09-23T09:07:37.419Z,13.00
2022-09-23T09:10:34.777Z,13.00
2022-09-23T09:13:32.657Z,13.10
2022-09-23T09:16:58.991Z,13.30
2022-09-23T09:19:55.344Z,13.40
2022-09-23T09:22:57.714Z,13.50
2022-09-23T09:25:49.377Z,13.70
2022-09-23T09:28:43.702Z,13.80
2022-09-23T09:31:36.125Z,14.00
2022-09-23T09:34:31.166Z,14.20
2022-09-23T09:37:25.448Z,14.30
2022-09-23T09:40:17.063Z,14.50
2022-09-23T09:43:05.432Z,14.60
2022-09-23T09:46:05.005Z,14.60
2022-09-23T09:48:59.810Z,14.70
2022-09-23T09:51:47.945Z,14.70
2022-09-23T09:54:36.134Z,14.70
2022-09-23T09:57:36.014Z,14.80
2022-09-23T10:00:41.837Z,14.90
2022-09-23T10:03:39.842Z,15.00
2022-09-23T10:06:30.125Z,15.20
2022-09-23T10:09:19.390Z,15.30
2022-09-23T10:12:17.577Z,15.40
2022-09-23T10:15:18.666Z,15.50
2022-09-23T10:18:19.611Z,15.60
2022-09-23T10:21:13.347Z,15.70
2022-09-23T10:24:04.847Z,15.90
2022-09-23T10:26:58.113Z,16.00
2022-09-23T10:29:51.917Z,16.10
2022-09-23T10:32:45.152Z,16.30
2022-09-23T10:35:34.482Z,16.40
2022-09-23T10:38:24.242Z,16.60
2022-09-23T10:41:45.864Z,16.60
2022-09-23T10:45:00.432Z,16.80
2022-09-23T10:47:59.499Z,16.90
2022-09-23T10:50:50.606Z,17.00
2022-09-23T10:53:50.761Z,17.10
2022-09-23T10:56:44.117Z,17.10
2022-09-23T10:59:50.053Z,17.20
2022-09-23T11:03:09.496Z,17.30
2022-09-23T11:06:11.313Z,17.30
2022-09-23T11:09:15.047Z,17.40
2022-09-23T11:12:15.120Z,17.60
2022-09-23T11:15:18.900Z,17.80
2022-09-23T11:18:51.790Z,18.10
2022-09-23T11:21:52.914Z,18.10
2022-09-23T11:25:06.808Z,18.00
2022-09-23T11:28:10.434Z,17.90
2022-09-23T11:31:10.286Z,17.80
2022-09-23T11:34:12.233Z,17.60
2022-09-23T11:37:05.820Z,17.30
2022-09-23T11:40:02.977Z,17.20
2022-09-23T11:42:59.123Z,17.10
2022-09-23T11:45:51.918Z,17.10
2022-09-23T11:48:45.010Z,17.10
2022-09-23T11:51:37.570Z,17.10
2022-09-23T11:54:32.642Z,17.10
2022-09-23T11:57:40.469Z,17.20
2022-09-23T12:00:39.399Z,17.20
2022-09-23T12:03:43.854Z,17.30
2022-09-23T12:06:39.890Z,17.40
2022-09-23T12:09:56.550Z,17.50
2022-09-23T12:12:50.535Z,17.70
2022-09-23T12:15:53.083Z,17.90
2022-09-23T12:18:53.531Z,18.10
2022-09-23T12:22:00.703Z,18.40
2022-09-23T12:24:56.744Z,18.90
2022-09-23T12:27:50.303Z,19.50
2022-09-23T12:30:40.902Z,19.60
2022-09-23T12:33:32.373Z,19.80
2022-09-23T12:36:27.694Z,19.90
2022-09-23T12:39:19.001Z,19.90
2022-09-23T12:42:19.497Z,20.00
2022-09-23T12:45:35.449Z,20.00
2022-09-23T12:48:46.997Z,20.20
2022-09-23T12:51:36.406Z,20.20
2022-09-23T12:54:25.605Z,20.30
2022-09-23T12:57:14.828Z,20.40
2022-09-23T13:00:24.209Z,20.60
2022-09-23T13:03:31.523Z,20.80
2022-09-23T13:06:37.366Z,20.90
2022-09-23T13:09:29.736Z,21.20
2022-09-23T13:12:22.292Z,21.60
2022-09-23T13:15:19.069Z,21.90
2022-09-23T13:18:46.381Z,22.10
2022-09-23T13:22:00.790Z,22.10
2022-09-23T13:24:54.652Z,21.70
2022-09-23T13:27:47.147Z,21.50
2022-09-23T13:30:35.387Z,21.60
2022-09-23T13:33:30.392Z,21.80
2022-09-23T13:36:21.108Z,21.50
2022-09-23T13:39:15.889Z,21.30
2022-09-23T13:42:05.194Z,21.30
2022-09-23T13:44:55.572Z,22.10
2022-09-23T13:47:45.548Z,23.90
2022-09-23T13:50:38.846Z,24.00
2022-09-23T13:53:29.709Z,24.70
2022-09-23T13:56:18.019Z,24.30
2022-09-23T13:59:23.565Z,23.90
2022-09-23T14:02:13.520Z,23.00
2022-09-23T14:05:12.463Z,22.50
2022-09-23T14:08:03.168Z,22.50
2022-09-23T14:10:51.717Z,22.40
2022-09-23T14:13:43.949Z,22.30
2022-09-23T14:16:32.260Z,22.20
2022-09-23T14:19:23.912Z,22.50
2022-09-23T14:22:24.534Z,23.30
2022-09-23T14:25:17.536Z,24.00
2022-09-23T14:28:06.052Z,23.80
2022-09-23T14:30:57.710Z,23.20
2022-09-23T14:33:47.143Z,22.70
2022-09-23T14:36:54.930Z,21.80
2022-09-23T14:39:43.009Z,21.20
2022-09-23T14:42:41.107Z,20.80
2022-09-23T14:45:34.638Z,20.70
2022-09-23T14:48:25.815Z,20.60
2022-09-23T14:51:17.035Z,20.60
2022-09-23T14:54:36.253Z,20.40
2022-09-23T14:57:30.019Z,20.30
2022-09-23T15:00:21.185Z,20.10
2022-09-23T15:03:16.054Z,19.80
2022-09-23T15:06:09.258Z,19.70
2022-09-23T15:08:57.419Z,19.50
2022-09-23T15:11:45.470Z,19.40
2022-09-23T15:14:39.438Z,19.50
2022-09-23T15:17:34.061Z,19.40
2022-09-23T15:20:25.245Z,19.40
2022-09-23T15:23:35.144Z,19.30
2022-09-23T15:26:24.795Z,19.10
2022-09-23T15:29:12.905Z,19.00
2022-09-23T15:32:01.214Z,18.90
2022-09-23T15:34:51.594Z,18.70
2022-09-23T15:37:40.413Z,18.60
2022-09-23T15:40:32.654Z,18.60
2022-09-23T15:43:23.294Z,18.50
2022-09-23T15:46:17.299Z,18.50
2022-09-23T15:49:10.223Z,18.50
2022-09-23T15:52:02.229Z,18.60
2022-09-23T15:54:50.225Z,18.60
2022-09-23T15:57:38.464Z,18.90
2022-09-23T16:00:26.712Z,18.90
2022-09-23T16:03:15.654Z,19.00
2022-09-23T16:06:04.160Z,19.00
2022-09-23T16:08:53.576Z,19.00
2022-09-23T16:11:46.090Z,18.90
2022-09-23T16:14:34.108Z,18.80
2022-09-23T16:17:22.162Z,18.70
2022-09-23T16:20:11.686Z,18.50
2022-09-23T16:23:01.428Z,18.30
2022-09-23T16:25:50.783Z,18.10
2022-09-23T16:28:38.964Z,17.90
2022-09-23T16:31:29.542Z,17.60
2022-09-23T16:34:20.085Z,17.30
2022-09-23T16:37:12.957Z,17.10
2022-09-23T16:40:02.101Z,16.70
2022-09-23T16:42:55.054Z,16.50
2022-09-23T16:45:43.346Z,16.30
2022-09-23T16:48:31.464Z,16.00
2022-09-23T16:51:21.288Z,15.80
2022-09-23T16:54:11.035Z,15.60
2022-09-23T16:56:59.170Z,15.30
2022-09-23T17:00:06.037Z,15.10
2022-09-23T17:03:11.835Z,14.90
2022-09-23T17:06:03.404Z,14.70
2022-09-23T17:08:52.723Z,14.60
2022-09-23T17:11:41.331Z,14.40
2022-09-23T17:14:31.463Z,14.30
2022-09-23T17:17:21.006Z,14.10
2022-09-23T17:20:09.522Z,14.00
2022-09-23T17:22:57.667Z,14.00
2022-09-23T17:25:48.679Z,13.90
2022-09-23T17:28:36.889Z,13.90
2022-09-23T17:31:25.801Z,13.80
2022-09-23T17:34:16.342Z,13.70
2022-09-23T17:37:04.437Z,13.60
2022-09-23T17:39:52.479Z,13.50
2022-09-23T17:42:42.012Z,13.40
2022-09-23T17:45:30.164Z,13.30
2022-09-23T17:48:20.264Z,13.30
2022-09-23T17:51:12.350Z,13.20
2022-09-23T17:54:00.404Z,13.10
2022-09-23T17:56:48.537Z,13.10
2022-09-23T17:59:36.617Z,13.10
2022-09-23T18:02:24.786Z,13.10
2022-09-23T18:05:12.875Z,13.20
2022-09-23T18:08:05.871Z,13.30
2022-09-23T18:10:54.357Z,13.30
2022-09-23T18:13:43.288Z,13.30
2022-09-23T18:16:34.760Z,13.40
2022-09-23T18:19:24.531Z,13.30
2022-09-23T18:22:12.648Z,13.30
2022-09-23T18:25:13.130Z,13.20
2022-09-23T18:28:10.251Z,13.10
2022-09-23T18:30:59.878Z,13.00
2022-09-23T18:33:51.121Z,13.00
2022-09-23T18:36:39.666Z,12.90
2022-09-23T18:39:27.722Z,12.90
2022-09-23T18:42:17.205Z,12.80
2022-09-23T18:45:06.049Z,12.80
2022-09-23T18:48:11.496Z,12.80
2022-09-23T18:50:59.554Z,12.70
2022-09-23T18:53:50.256Z,12.60
2022-09-23T18:56:41.977Z,12.50
2022-09-23T18:59:33.441Z,12.40
2022-09-23T19:02:21.699Z,12.30
2022-09-23T19:05:10.160Z,12.30
2022-09-23T19:07:58.280Z,12.20
2022-09-23T19:10:55.692Z,12.20
2022-09-23T19:13:43.841Z,12.10
2022-09-23T19:16:34.848Z,12.00
2022-09-23T19:19:22.976Z,12.00
2022-09-23T19:22:11.068Z,12.00
2022-09-23T19:24:59.094Z,11.90
2022-09-23T19:27:48.589Z,11.90
2022-09-23T19:30:38.827Z,11.90
2022-09-23T19:33:28.185Z,11.90
2022-09-23T19:36:16.221Z,11.80
2022-09-23T19:39:06.272Z,11.80
2022-09-23T19:41:55.690Z,11.80
2022-09-23T19:44:43.787Z,11.80
2022-09-23T19:47:31.855Z,11.70
2022-09-23T19:50:21.502Z,11.70
2022-09-23T19:53:09.758Z,11.60
2022-09-23T19:55:57.873Z,11.60
2022-09-23T19:58:48.210Z,11.60
2022-09-23T20:01:36.602Z,11.50
2022-09-23T20:04:24.916Z,11.50
2022-09-23T20:07:15.629Z,11.50
2022-09-23T20:10:03.778Z,11.50
2022-09-23T20:12:51.927Z,11.50
2022-09-23T20:15:40.044Z,11.40
2022-09-23T20:18:28.108Z,11.40
2022-09-23T20:21:16.732Z,11.50
2022-09-23T20:24:07.577Z,11.40
2022-09-23T20:27:11.213Z,11.40
2022-09-23T20:30:00.401Z,11.40
2022-09-23T20:32:49.963Z,11.40
2022-09-23T20:35:38.023Z,11.30
2022-09-23T20:38:26.055Z,11.30
2022-09-23T20:41:18.104Z,11.30
2022-09-23T20:44:07.896Z,11.40
2022-09-23T20:46:56.216Z,11.40
2022-09-23T20:49:46.264Z,11.40
2022-09-23T20:52:36.222Z,11.40
2022-09-23T20:55:24.271Z,11.50
2022-09-23T20:58:13.644Z,11.50
2022-09-23T21:01:03.900Z,11.50
2022-09-23T21:03:54.161Z,11.50
2022-09-23T21:06:42.187Z,11.60
2022-09-23T21:09:31.941Z,11.60
2022-09-23T21:12:20.012Z,11.60
2022-09-23T21:15:10.196Z,11.60
2022-09-23T21:17:58.259Z,11.60
2022-09-23T21:20:55.171Z,11.60
2022-09-23T21:23:43.925Z,11.60
2022-09-23T21:26:32.144Z,11.60
2022-09-23T21:29:20.192Z,11.60
2022-09-23T21:32:10.354Z,11.70
2022-09-23T21:34:58.419Z,11.60
2022-09-23T21:37:46.764Z,11.60
2022-09-23T21:40:52.535Z,11.60
2022-09-23T21:43:40.686Z,11.60
2022-09-23T21:46:29.592Z,11.60
2022-09-23T21:49:19.087Z,11.60
2022-09-23T21:52:07.736Z,11.50
2022-09-23T21:54:55.837Z,11.50
2022-09-23T21:57:46.051Z,11.50
2022-09-23T22:00:34.109Z,11.50
2022-09-23T22:03:22.221Z,11.40
2022-09-23T22:06:13.327Z,11.40
2022-09-23T22:09:05.404Z,11.40
2022-09-23T22:12:11.157Z,11.40
2022-09-23T22:14:59.234Z,11.40
2022-09-23T22:17:48.030Z,11.40
2022-09-23T22:20:36.076Z,11.40
2022-09-23T22:23:26.058Z,11.40
2022-09-23T22:26:14.124Z,11.40
2022-09-23T22:29:19.926Z,11.40
2022-09-23T22:32:29.777Z,11.40
2022-09-23T22:35:18.810Z,11.40
2022-09-23T22:38:06.940Z,11.30
2022-09-23T22:40:56.355Z,11.40
2022-09-23T22:43:44.476Z,11.40
2022-09-23T22:46:34.668Z,11.40
2022-09-23T22:49:22.805Z,11.30
2022-09-23T22:52:11.393Z,11.30
2022-09-23T22:54:59.533Z,11.30
2022-09-23T22:57:51.020Z,11.30
2022-09-23T23:00:39.083Z,11.30
2022-09-23T23:03:27.751Z,11.30
2022-09-23T23:06:15.838Z,13.20
2022-09-23T23:09:07.840Z,11.20
2022-09-23T23:11:55.898Z,11.20
2022-09-23T23:14:45.284Z,11.20
2022-09-23T23:17:33.615Z,11.10
2022-09-23T23:20:21.702Z,11.10
2022-09-23T23:23:09.957Z,11.10
2022-09-23T23:25:58.075Z,11.10
2022-09-23T23:28:46.697Z,11.10
2022-09-23T23:31:36.099Z,11.00
2022-09-23T23:34:24.275Z,12.90
2022-09-23T23:37:12.348Z,10.90
2022-09-23T23:40:00.418Z,10.90
2022-09-23T23:42:48.452Z,10.90
2022-09-23T23:45:36.567Z,10.90
2022-09-23T23:48:25.954Z,10.80
2022-09-23T23:51:14.007Z,10.80
2022-09-23T23:54:02.084Z,10.80
2022-09-23T23:56:50.233Z,10.80
2022-09-23T23:59:38.529Z,10.80
